sensor_id;sensor_type;location;lat;lon;timestamp;pressure;altitude;pressure_sealevel;temperature;humidity
51239;BME280;38154;47.548;18.828;2023-02-23T00:01:55;98752.41;;;8.30;93.25
51239;BME280;38154;47.548;18.828;2023-02-23T00:04:23;98755.84;;;8.27;93.57
51239;BME280;38154;47.548;18.828;2023-02-23T00:06:50;98741.13;;;8.26;92.92
51239;BME280;38154;47.548;18.828;2023-02-23T00:09:18;98744.59;;;8.27;93.00
51239;BME280;38154;47.548;18.828;2023-02-23T00:11:51;98743.63;;;8.18;93.56
51239;BME280;38154;47.548;18.828;2023-02-23T00:14:18;98747.06;;;8.13;93.48
51239;BME280;38154;47.548;18.828;2023-02-23T00:16:44;98743.63;;;8.17;93.08
51239;BME280;38154;47.548;18.828;2023-02-23T00:19:11;98747.94;;;8.16;92.93
51239;BME280;38154;47.548;18.828;2023-02-23T00:21:40;98750.53;;;8.16;92.68
51239;BME280;38154;47.548;18.828;2023-02-23T00:24:07;98746.19;;;8.14;92.65
51239;BME280;38154;47.548;18.828;2023-02-23T00:26:34;98746.13;;;8.11;93.07
51239;BME280;38154;47.548;18.828;2023-02-23T00:29:07;98747.12;;;8.21;92.73
51239;BME280;38154;47.548;18.828;2023-02-23T00:31:34;98742.00;;;8.27;91.72
51239;BME280;38154;47.548;18.828;2023-02-23T00:34:01;98749.84;;;8.33;91.50
51239;BME280;38154;47.548;18.828;2023-02-23T00:36:30;98744.56;;;8.24;91.92
51239;BME280;38154;47.548;18.828;2023-02-23T00:38:58;98752.34;;;8.24;92.08
51239;BME280;38154;47.548;18.828;2023-02-23T00:41:27;98748.78;;;8.14;92.39
51239;BME280;38154;47.548;18.828;2023-02-23T00:43:55;98740.91;;;8.05;93.09
51239;BME280;38154;47.548;18.828;2023-02-23T00:46:24;98745.25;;;8.09;92.07
51239;BME280;38154;47.548;18.828;2023-02-23T00:48:52;98741.88;;;8.16;90.95
51239;BME280;38154;47.548;18.828;2023-02-23T00:51:20;98750.50;;;8.13;90.94
51239;BME280;38154;47.548;18.828;2023-02-23T00:53:46;98750.50;;;8.12;91.07
51239;BME280;38154;47.548;18.828;2023-02-23T00:56:13;98749.66;;;8.14;91.52
51239;BME280;38154;47.548;18.828;2023-02-23T00:58:40;98745.38;;;8.18;91.32
51239;BME280;38154;47.548;18.828;2023-02-23T01:01:08;98759.19;;;8.15;90.92
51239;BME280;38154;47.548;18.828;2023-02-23T01:03:35;98748.78;;;8.14;90.84
51239;BME280;38154;47.548;18.828;2023-02-23T01:06:03;98751.31;;;8.09;90.54
51239;BME280;38154;47.548;18.828;2023-02-23T01:08:43;98749.59;;;8.10;92.70
51239;BME280;38154;47.548;18.828;2023-02-23T01:11:13;98759.94;;;8.05;91.59
51239;BME280;38154;47.548;18.828;2023-02-23T01:13:41;98752.06;;;7.97;91.89
51239;BME280;38154;47.548;18.828;2023-02-23T01:16:11;98756.34;;;7.94;92.45
51239;BME280;38154;47.548;18.828;2023-02-23T01:18:39;98747.66;;;7.92;91.91
51239;BME280;38154;47.548;18.828;2023-02-23T01:21:23;98749.31;;;7.85;92.15
51239;BME280;38154;47.548;18.828;2023-02-23T01:23:51;98744.13;;;7.84;91.82
51239;BME280;38154;47.548;18.828;2023-02-23T01:26:22;98749.25;;;7.79;91.92
51239;BME280;38154;47.548;18.828;2023-02-23T01:28:50;98748.25;;;7.68;93.00
51239;BME280;38154;47.548;18.828;2023-02-23T01:31:16;98748.19;;;7.63;94.80
51239;BME280;38154;47.548;18.828;2023-02-23T01:33:42;98749.06;;;7.64;92.75
51239;BME280;38154;47.548;18.828;2023-02-23T01:36:08;98749.81;;;7.53;93.20
51239;BME280;38154;47.548;18.828;2023-02-23T01:38:34;98742.78;;;7.46;93.46
51239;BME280;38154;47.548;18.828;2023-02-23T01:41:00;98742.63;;;7.35;95.47
51239;BME280;38154;47.548;18.828;2023-02-23T01:43:26;98740.00;;;7.32;95.80
51239;BME280;38154;47.548;18.828;2023-02-23T01:45:56;98741.66;;;7.27;97.26
51239;BME280;38154;47.548;18.828;2023-02-23T01:48:27;98741.66;;;7.27;97.11
51239;BME280;38154;47.548;18.828;2023-02-23T01:51:08;98742.53;;;7.26;96.26
51239;BME280;38154;47.548;18.828;2023-02-23T01:53:39;98738.19;;;7.27;95.58
51239;BME280;38154;47.548;18.828;2023-02-23T01:56:10;98738.09;;;7.20;97.22
51239;BME280;38154;47.548;18.828;2023-02-23T01:58:42;98734.56;;;7.15;98.47
51239;BME280;38154;47.548;18.828;2023-02-23T02:01:10;98739.97;;;7.28;98.16
51239;BME280;38154;47.548;18.828;2023-02-23T02:04:06;98743.56;;;7.40;96.19
51239;BME280;38154;47.548;18.828;2023-02-23T02:06:34;98739.41;;;7.52;93.65
51239;BME280;38154;47.548;18.828;2023-02-23T02:09:07;98737.41;;;7.32;95.99
51239;BME280;38154;47.548;18.828;2023-02-23T02:11:35;98739.03;;;7.24;95.71
51239;BME280;38154;47.548;18.828;2023-02-23T02:14:03;98736.34;;;7.18;95.46
51239;BME280;38154;47.548;18.828;2023-02-23T02:19:39;98727.94;;;7.34;94.09
51239;BME280;38154;47.548;18.828;2023-02-23T02:35:57;98728.59;;;7.19;95.21
51239;BME280;38154;47.548;18.828;2023-02-23T02:39:10;98726.00;;;7.19;94.67
51239;BME280;38154;47.548;18.828;2023-02-23T02:41:46;98728.50;;;7.13;96.03
51239;BME280;38154;47.548;18.828;2023-02-23T02:47:21;98733.81;;;7.21;92.93
51239;BME280;38154;47.548;18.828;2023-02-23T02:50:15;98736.44;;;7.22;92.19
51239;BME280;38154;47.548;18.828;2023-02-23T02:52:47;98730.22;;;7.11;93.88
51239;BME280;38154;47.548;18.828;2023-02-23T02:55:18;98729.41;;;7.17;94.60
51239;BME280;38154;47.548;18.828;2023-02-23T02:57:50;98733.78;;;7.19;93.52
51239;BME280;38154;47.548;18.828;2023-02-23T03:00:27;98736.41;;;7.21;92.36
51239;BME280;38154;47.548;18.828;2023-02-23T03:03:41;98743.25;;;7.16;93.10
51239;BME280;38154;47.548;18.828;2023-02-23T03:06:33;98734.44;;;7.04;94.23
51239;BME280;38154;47.548;18.828;2023-02-23T03:09:26;98738.97;;;7.19;93.32
51239;BME280;38154;47.548;18.828;2023-02-23T03:12:32;98738.19;;;7.25;94.01
51239;BME280;38154;47.548;18.828;2023-02-23T03:15:31;98730.28;;;7.16;91.55
51239;BME280;38154;47.548;18.828;2023-02-23T03:21:35;98744.69;;;6.97;90.69
51239;BME280;38154;47.548;18.828;2023-02-23T03:24:41;98745.53;;;6.96;90.09
51239;BME280;38154;47.548;18.828;2023-02-23T03:30:24;98747.34;;;7.01;89.19
51239;BME280;38154;47.548;18.828;2023-02-23T03:33:15;98741.34;;;7.04;88.78
51239;BME280;38154;47.548;18.828;2023-02-23T03:36:13;98754.22;;;6.99;89.35
51239;BME280;38154;47.548;18.828;2023-02-23T03:41:57;98742.16;;;7.01;89.82
51239;BME280;38154;47.548;18.828;2023-02-23T03:44:47;98756.81;;;6.99;88.28
51239;BME280;38154;47.548;18.828;2023-02-23T03:47:35;98742.19;;;7.03;88.42
51239;BME280;38154;47.548;18.828;2023-02-23T03:50:29;98733.47;;;6.98;89.32
51239;BME280;38154;47.548;18.828;2023-02-23T03:53:19;98745.59;;;6.99;89.17
51239;BME280;38154;47.548;18.828;2023-02-23T03:56:08;98732.69;;;7.03;88.37
51239;BME280;38154;47.548;18.828;2023-02-23T03:58:58;98734.34;;;6.98;88.86
51239;BME280;38154;47.548;18.828;2023-02-23T04:01:45;98740.47;;;7.03;89.88
51239;BME280;38154;47.548;18.828;2023-02-23T04:04:30;98755.97;;;7.00;91.06
51239;BME280;38154;47.548;18.828;2023-02-23T04:07:17;98744.75;;;7.01;88.64
51239;BME280;38154;47.548;18.828;2023-02-23T04:10:04;98747.28;;;6.97;88.68
51239;BME280;38154;47.548;18.828;2023-02-23T04:18:21;98748.12;;;6.94;88.49
51239;BME280;38154;47.548;18.828;2023-02-23T04:20:48;98747.16;;;6.89;88.51
51239;BME280;38154;47.548;18.828;2023-02-23T04:23:14;98746.31;;;6.90;88.88
51239;BME280;38154;47.548;18.828;2023-02-23T04:25:40;98747.16;;;6.89;89.15
51239;BME280;38154;47.548;18.828;2023-02-23T04:28:06;98744.56;;;6.89;88.84
51239;BME280;38154;47.548;18.828;2023-02-23T04:30:32;98744.50;;;6.84;88.42
51239;BME280;38154;47.548;18.828;2023-02-23T04:32:58;98744.63;;;6.94;89.66
51239;BME280;38154;47.548;18.828;2023-02-23T04:35:26;98742.78;;;6.86;88.50
51239;BME280;38154;47.548;18.828;2023-02-23T04:37:54;98747.81;;;6.76;88.31
51239;BME280;38154;47.548;18.828;2023-02-23T04:40:20;98750.44;;;6.77;88.21
51239;BME280;38154;47.548;18.828;2023-02-23T04:42:46;98753.94;;;6.81;88.43
51239;BME280;38154;47.548;18.828;2023-02-23T04:45:12;98751.34;;;6.79;88.89
51239;BME280;38154;47.548;18.828;2023-02-23T04:47:38;98740.03;;;6.74;88.29
51239;BME280;38154;47.548;18.828;2023-02-23T04:50:04;98750.37;;;6.74;88.64
51239;BME280;38154;47.548;18.828;2023-02-23T04:52:30;98755.59;;;6.76;88.07
51239;BME280;38154;47.548;18.828;2023-02-23T04:54:56;98746.84;;;6.69;87.98
51239;BME280;38154;47.548;18.828;2023-02-23T04:57:22;98747.78;;;6.74;87.39
51239;BME280;38154;47.548;18.828;2023-02-23T04:59:48;98752.28;;;6.84;87.06
51239;BME280;38154;47.548;18.828;2023-02-23T05:02:14;98755.78;;;6.88;86.88
51239;BME280;38154;47.548;18.828;2023-02-23T05:04:40;98760.84;;;6.79;87.35
51239;BME280;38154;47.548;18.828;2023-02-23T05:07:06;98754.72;;;6.74;87.08
51239;BME280;38154;47.548;18.828;2023-02-23T05:09:31;98749.47;;;6.71;88.66
51239;BME280;38154;47.548;18.828;2023-02-23T05:11:58;98756.31;;;6.68;88.12
51239;BME280;38154;47.548;18.828;2023-02-23T05:14:24;98758.09;;;6.71;87.49
51239;BME280;38154;47.548;18.828;2023-02-23T05:16:50;98753.72;;;6.65;88.36
51239;BME280;38154;47.548;18.828;2023-02-23T05:19:15;98751.94;;;6.64;88.25
51239;BME280;38154;47.548;18.828;2023-02-23T05:21:41;98764.91;;;6.64;89.20
51239;BME280;38154;47.548;18.828;2023-02-23T05:24:07;98761.56;;;6.72;89.26
51239;BME280;38154;47.548;18.828;2023-02-23T05:26:33;98755.62;;;6.77;88.80
51239;BME280;38154;47.548;18.828;2023-02-23T05:28:59;98762.56;;;6.80;90.03
51239;BME280;38154;47.548;18.828;2023-02-23T05:31:26;98760.88;;;6.83;88.27
51239;BME280;38154;47.548;18.828;2023-02-23T05:33:52;98766.03;;;6.79;89.35
51239;BME280;38154;47.548;18.828;2023-02-23T05:36:19;98763.34;;;6.74;88.48
51239;BME280;38154;47.548;18.828;2023-02-23T05:38:46;98759.81;;;6.69;90.37
51239;BME280;38154;47.548;18.828;2023-02-23T05:41:14;98768.31;;;6.62;88.02
51239;BME280;38154;47.548;18.828;2023-02-23T05:43:40;98763.12;;;6.60;87.75
51239;BME280;38154;47.548;18.828;2023-02-23T05:46:11;98763.03;;;6.56;87.59
51239;BME280;38154;47.548;18.828;2023-02-23T05:48:37;98778.62;;;6.59;87.89
51239;BME280;38154;47.548;18.828;2023-02-23T05:51:09;98771.56;;;6.50;87.50
51239;BME280;38154;47.548;18.828;2023-02-23T05:53:35;98771.59;;;6.52;87.75
51239;BME280;38154;47.548;18.828;2023-02-23T05:56:03;98777.72;;;6.57;87.34
51239;BME280;38154;47.548;18.828;2023-02-23T05:58:29;98771.66;;;6.55;87.98
51239;BME280;38154;47.548;18.828;2023-02-23T06:00:55;98771.53;;;6.47;87.09
51239;BME280;38154;47.548;18.828;2023-02-23T06:03:22;98779.31;;;6.50;87.46
51239;BME280;38154;47.548;18.828;2023-02-23T06:05:52;98778.44;;;6.48;86.58
51239;BME280;38154;47.548;18.828;2023-02-23T06:08:19;98779.31;;;6.50;86.43
51239;BME280;38154;47.548;18.828;2023-02-23T06:10:45;98776.78;;;6.53;87.76
51239;BME280;38154;47.548;18.828;2023-02-23T06:13:12;98781.84;;;6.44;86.34
51239;BME280;38154;47.548;18.828;2023-02-23T06:15:39;98783.56;;;6.45;86.59
51239;BME280;38154;47.548;18.828;2023-02-23T06:18:05;98788.66;;;6.42;86.47
51239;BME280;38154;47.548;18.828;2023-02-23T06:20:32;98794.78;;;6.44;86.52
51239;BME280;38154;47.548;18.828;2023-02-23T06:22:58;98807.78;;;6.47;85.74
51239;BME280;38154;47.548;18.828;2023-02-23T06:25:23;98818.94;;;6.44;86.95
51239;BME280;38154;47.548;18.828;2023-02-23T06:27:49;98820.75;;;6.48;87.12
51239;BME280;38154;47.548;18.828;2023-02-23T06:30:15;98801.75;;;6.48;86.28
51239;BME280;38154;47.548;18.828;2023-02-23T06:32:41;98810.41;;;6.50;84.20
51239;BME280;38154;47.548;18.828;2023-02-23T06:35:08;98819.06;;;6.50;84.87
51239;BME280;38154;47.548;18.828;2023-02-23T06:37:34;98818.28;;;6.55;85.36
51239;BME280;38154;47.548;18.828;2023-02-23T06:40:01;98813.00;;;6.50;83.89
51239;BME280;38154;47.548;18.828;2023-02-23T06:42:27;98832.09;;;6.54;83.87
51239;BME280;38154;47.548;18.828;2023-02-23T06:44:53;98816.50;;;6.50;83.87
51239;BME280;38154;47.548;18.828;2023-02-23T06:47:19;98831.12;;;6.50;82.59
51239;BME280;38154;47.548;18.828;2023-02-23T06:49:45;98835.37;;;6.46;83.36
51239;BME280;38154;47.548;18.828;2023-02-23T06:52:12;98820.00;;;6.54;83.38
51239;BME280;38154;47.548;18.828;2023-02-23T06:54:39;98828.66;;;6.56;83.16
51239;BME280;38154;47.548;18.828;2023-02-23T06:57:09;98834.81;;;6.61;82.34
51239;BME280;38154;47.548;18.828;2023-02-23T06:59:35;98841.72;;;6.61;82.14
51239;BME280;38154;47.548;18.828;2023-02-23T07:02:02;98833.13;;;6.65;82.12
51239;BME280;38154;47.548;18.828;2023-02-23T07:04:32;98836.69;;;6.70;81.67
51239;BME280;38154;47.548;18.828;2023-02-23T07:06:58;98847.91;;;6.69;81.19
51239;BME280;38154;47.548;18.828;2023-02-23T07:09:24;98833.03;;;6.59;81.35
51239;BME280;38154;47.548;18.828;2023-02-23T07:11:50;98839.25;;;6.67;82.11
51239;BME280;38154;47.548;18.828;2023-02-23T07:14:16;98837.38;;;6.61;80.23
51239;BME280;38154;47.548;18.828;2023-02-23T07:16:42;98835.56;;;6.56;80.16
51239;BME280;38154;47.548;18.828;2023-02-23T07:19:08;98847.69;;;6.58;79.90
51239;BME280;38154;47.548;18.828;2023-02-23T07:21:34;98843.50;;;6.65;79.89
51239;BME280;38154;47.548;18.828;2023-02-23T07:24:00;98839.25;;;6.68;79.24
51239;BME280;38154;47.548;18.828;2023-02-23T07:26:27;98852.16;;;6.65;79.00
51239;BME280;38154;47.548;18.828;2023-02-23T07:28:53;98850.34;;;6.61;78.62
51239;BME280;38154;47.548;18.828;2023-02-23T07:31:19;98853.88;;;6.66;78.41
51239;BME280;38154;47.548;18.828;2023-02-23T07:33:45;98847.88;;;6.67;78.50
51239;BME280;38154;47.548;18.828;2023-02-23T07:36:12;98853.13;;;6.71;78.19
51239;BME280;38154;47.548;18.828;2023-02-23T07:38:38;98854.91;;;6.75;77.98
51239;BME280;38154;47.548;18.828;2023-02-23T07:41:04;98847.28;;;6.82;77.31
51239;BME280;38154;47.548;18.828;2023-02-23T07:43:30;98863.00;;;6.93;76.24
51239;BME280;38154;47.548;18.828;2023-02-23T07:46:00;98850.19;;;7.01;75.96
51239;BME280;38154;47.548;18.828;2023-02-23T07:48:26;98853.72;;;7.06;76.51
51239;BME280;38154;47.548;18.828;2023-02-23T07:50:52;98856.28;;;7.04;75.43
51239;BME280;38154;47.548;18.828;2023-02-23T07:53:18;98852.78;;;7.01;76.09
51239;BME280;38154;47.548;18.828;2023-02-23T07:55:44;98854.50;;;7.02;76.55
51239;BME280;38154;47.548;18.828;2023-02-23T07:58:10;98850.34;;;7.12;76.14
51239;BME280;38154;47.548;18.828;2023-02-23T08:00:38;98858.31;;;7.22;76.25
51239;BME280;38154;47.548;18.828;2023-02-23T08:03:05;98850.59;;;7.27;75.98
51239;BME280;38154;47.548;18.828;2023-02-23T08:05:31;98858.44;;;7.32;75.99
51239;BME280;38154;47.548;18.828;2023-02-23T08:07:58;98852.66;;;7.50;74.66
51239;BME280;38154;47.548;18.828;2023-02-23T08:10:24;98850.13;;;7.53;73.85
51239;BME280;38154;47.548;18.828;2023-02-23T08:12:50;98851.94;;;7.58;74.03
51239;BME280;38154;47.548;18.828;2023-02-23T08:15:17;98852.94;;;7.68;73.35
51239;BME280;38154;47.548;18.828;2023-02-23T08:17:43;98859.63;;;7.52;72.67
51239;BME280;38154;47.548;18.828;2023-02-23T08:20:09;98857.13;;;7.58;73.15
51239;BME280;38154;47.548;18.828;2023-02-23T08:22:35;98863.31;;;7.68;71.83
51239;BME280;38154;47.548;18.828;2023-02-23T08:25:01;98862.47;;;7.68;71.03
51239;BME280;38154;47.548;18.828;2023-02-23T08:27:35;98863.22;;;7.62;71.35
51239;BME280;38154;47.548;18.828;2023-02-23T08:30:01;98870.31;;;7.74;71.02
51239;BME280;38154;47.548;18.828;2023-02-23T08:32:32;98869.66;;;7.89;70.63
51239;BME280;38154;47.548;18.828;2023-02-23T08:35:00;98865.34;;;7.91;69.81
51239;BME280;38154;47.548;18.828;2023-02-23T08:37:28;98877.53;;;7.95;69.86
51239;BME280;38154;47.548;18.828;2023-02-23T08:39:54;98866.44;;;8.07;69.94
51239;BME280;38154;47.548;18.828;2023-02-23T08:42:20;98871.66;;;8.10;69.01
51239;BME280;38154;47.548;18.828;2023-02-23T08:44:46;98872.63;;;8.16;69.26
51239;BME280;38154;47.548;18.828;2023-02-23T08:47:15;98877.78;;;8.15;68.37
51239;BME280;38154;47.548;18.828;2023-02-23T08:49:42;98875.91;;;8.03;68.11
51239;BME280;38154;47.548;18.828;2023-02-23T08:52:08;98876.00;;;8.11;69.11
51239;BME280;38154;47.548;18.828;2023-02-23T08:54:34;98877.78;;;8.15;67.92
51239;BME280;38154;47.548;18.828;2023-02-23T08:56:59;98879.47;;;8.10;68.30
51239;BME280;38154;47.548;18.828;2023-02-23T08:59:25;98881.37;;;8.28;68.14
51239;BME280;38154;47.548;18.828;2023-02-23T09:01:51;98883.06;;;8.23;67.94
51239;BME280;38154;47.548;18.828;2023-02-23T09:04:17;98882.38;;;8.38;67.28
51239;BME280;38154;47.548;18.828;2023-02-23T09:06:45;98880.97;;;8.64;66.65
51239;BME280;38154;47.548;18.828;2023-02-23T09:09:12;98879.31;;;8.71;65.48
51239;BME280;38154;47.548;18.828;2023-02-23T09:11:39;98884.62;;;8.79;65.32
51239;BME280;38154;47.548;18.828;2023-02-23T09:14:05;98888.37;;;9.10;64.12
51239;BME280;38154;47.548;18.828;2023-02-23T09:16:31;98890.91;;;9.04;63.51
51239;BME280;38154;47.548;18.828;2023-02-23T09:18:57;98892.75;;;9.14;63.19
51239;BME280;38154;47.548;18.828;2023-02-23T09:21:26;98903.97;;;9.08;63.77
51239;BME280;38154;47.548;18.828;2023-02-23T09:23:54;98894.69;;;9.41;63.67
51239;BME280;38154;47.548;18.828;2023-02-23T09:26:22;98891.19;;;9.36;63.14
51239;BME280;38154;47.548;18.828;2023-02-23T09:28:49;98896.44;;;9.42;63.58
51239;BME280;38154;47.548;18.828;2023-02-23T09:31:18;98900.91;;;9.56;62.41
51239;BME280;38154;47.548;18.828;2023-02-23T09:33:43;98895.75;;;9.66;61.87
51239;BME280;38154;47.548;18.828;2023-02-23T09:36:12;98899.41;;;9.93;61.21
51239;BME280;38154;47.548;18.828;2023-02-23T09:38:39;98898.44;;;9.82;61.40
51239;BME280;38154;47.548;18.828;2023-02-23T09:41:25;98897.69;;;10.01;61.28
51239;BME280;38154;47.548;18.828;2023-02-23T09:44:02;98903.84;;;10.13;59.91
51239;BME280;38154;47.548;18.828;2023-02-23T09:48:58;98902.06;;;10.02;59.93
51239;BME280;38154;47.548;18.828;2023-02-23T09:51:26;98904.59;;;9.87;60.35
51239;BME280;38154;47.548;18.828;2023-02-23T09:53:56;98904.66;;;10.01;60.05
51239;BME280;38154;47.548;18.828;2023-02-23T09:56:37;98906.50;;;10.27;60.13
51239;BME280;38154;47.548;18.828;2023-02-23T09:59:13;98898.78;;;10.40;58.65
51239;BME280;38154;47.548;18.828;2023-02-23T10:04:56;98904.00;;;10.36;58.98
51239;BME280;38154;47.548;18.828;2023-02-23T10:07:33;98907.50;;;10.50;59.07
51239;BME280;38154;47.548;18.828;2023-02-23T10:10:22;98906.62;;;10.44;58.63
51239;BME280;38154;47.548;18.828;2023-02-23T10:13:09;98910.94;;;10.32;59.20
51239;BME280;38154;47.548;18.828;2023-02-23T10:21:15;98916.78;;;9.96;60.08
51239;BME280;38154;47.548;18.828;2023-02-23T10:26:16;98905.53;;;10.03;59.48
51239;BME280;38154;47.548;18.828;2023-02-23T10:28:44;98904.78;;;10.24;59.96
51239;BME280;38154;47.548;18.828;2023-02-23T10:33:41;98910.81;;;10.14;59.53
51239;BME280;38154;47.548;18.828;2023-02-23T10:36:28;98906.44;;;10.08;59.08
51239;BME280;38154;47.548;18.828;2023-02-23T10:38:56;98901.38;;;10.36;59.35
51239;BME280;38154;47.548;18.828;2023-02-23T10:41:22;98899.62;;;10.35;58.95
51239;BME280;38154;47.548;18.828;2023-02-23T10:43:48;98900.59;;;10.52;58.48
51239;BME280;38154;47.548;18.828;2023-02-23T10:46:21;98898.84;;;10.53;57.90
51239;BME280;38154;47.548;18.828;2023-02-23T10:48:49;98893.59;;;10.48;57.98
51239;BME280;38154;47.548;18.828;2023-02-23T10:51:21;98884.00;;;10.33;58.11
51239;BME280;38154;47.548;18.828;2023-02-23T10:53:49;98888.28;;;10.31;59.32
51239;BME280;38154;47.548;18.828;2023-02-23T10:56:18;98886.69;;;10.60;58.78
51239;BME280;38154;47.548;18.828;2023-02-23T10:58:54;98880.47;;;10.31;58.70
51239;BME280;38154;47.548;18.828;2023-02-23T11:01:36;98886.59;;;10.35;59.54
51239;BME280;38154;47.548;18.828;2023-02-23T11:04:23;98878.81;;;10.47;59.28
51239;BME280;38154;47.548;18.828;2023-02-23T11:06:52;98880.59;;;10.54;59.19
51239;BME280;38154;47.548;18.828;2023-02-23T11:09:31;98879.75;;;10.63;59.65
51239;BME280;38154;47.548;18.828;2023-02-23T11:12:00;98877.97;;;10.59;59.25
51239;BME280;38154;47.548;18.828;2023-02-23T11:14:29;98873.66;;;10.58;58.80
51239;BME280;38154;47.548;18.828;2023-02-23T11:16:57;98867.50;;;10.34;59.04
51239;BME280;38154;47.548;18.828;2023-02-23T11:19:33;98863.91;;;10.20;59.61
51239;BME280;38154;47.548;18.828;2023-02-23T11:21:59;98865.69;;;10.27;60.54
51239;BME280;38154;47.548;18.828;2023-02-23T11:24:27;98861.25;;;10.06;59.72
51239;BME280;38154;47.548;18.828;2023-02-23T11:26:59;98855.13;;;9.98;60.21
51239;BME280;38154;47.548;18.828;2023-02-23T11:29:34;98856.81;;;9.87;60.90
51239;BME280;38154;47.548;18.828;2023-02-23T11:32:08;98858.56;;;9.88;61.36
51239;BME280;38154;47.548;18.828;2023-02-23T11:34:38;98852.53;;;9.98;61.93
51239;BME280;38154;47.548;18.828;2023-02-23T11:39:57;98852.53;;;9.96;61.00
51239;BME280;38154;47.548;18.828;2023-02-23T11:42:32;98848.97;;;9.82;61.52
51239;BME280;38154;47.548;18.828;2023-02-23T11:45:03;98846.38;;;9.83;61.94
51239;BME280;38154;47.548;18.828;2023-02-23T11:47:31;98842.06;;;9.90;61.55
51239;BME280;38154;47.548;18.828;2023-02-23T11:49:58;98850.75;;;9.86;61.84
51239;BME280;38154;47.548;18.828;2023-02-23T11:52:24;98842.94;;;9.88;61.73
51239;BME280;38154;47.548;18.828;2023-02-23T11:55:01;98842.06;;;9.90;62.50
51239;BME280;38154;47.548;18.828;2023-02-23T11:57:33;98838.72;;;10.14;62.58
51239;BME280;38154;47.548;18.828;2023-02-23T12:00:08;98836.09;;;10.13;60.90
51239;BME280;38154;47.548;18.828;2023-02-23T12:02:46;98837.00;;;10.18;60.83
51239;BME280;38154;47.548;18.828;2023-02-23T12:05:24;98833.53;;;10.27;61.88
51239;BME280;38154;47.548;18.828;2023-02-23T12:10:36;98834.47;;;10.32;60.64
51239;BME280;38154;47.548;18.828;2023-02-23T12:18:45;98826.72;;;10.55;60.49
51239;BME280;38154;47.548;18.828;2023-02-23T12:23:41;98817.16;;;10.51;61.38
51239;BME280;38154;47.548;18.828;2023-02-23T12:26:16;98814.56;;;10.77;60.49
51239;BME280;38154;47.548;18.828;2023-02-23T12:28:55;98811.97;;;10.91;59.27
51239;BME280;38154;47.548;18.828;2023-02-23T12:31:36;98813.72;;;10.95;58.10
51239;BME280;38154;47.548;18.828;2023-02-23T12:34:57;98802.41;;;10.81;59.15
51239;BME280;38154;47.548;18.828;2023-02-23T12:37:00;98805.88;;;10.70;59.19
51239;BME280;38154;47.548;18.828;2023-02-23T12:39:35;98809.38;;;10.83;59.78
51239;BME280;38154;47.548;18.828;2023-02-23T12:42:10;98794.59;;;10.71;59.45
51239;BME280;38154;47.548;18.828;2023-02-23T12:44:55;98787.63;;;10.72;60.54
51239;BME280;38154;47.548;18.828;2023-02-23T12:47:43;98787.63;;;10.76;59.48
51239;BME280;38154;47.548;18.828;2023-02-23T13:00:45;98773.72;;;10.91;59.25
51239;BME280;38154;47.548;18.828;2023-02-23T13:03:22;98771.09;;;11.08;58.97
51239;BME280;38154;47.548;18.828;2023-02-23T13:06:03;98766.75;;;11.23;58.77
51239;BME280;38154;47.548;18.828;2023-02-23T13:08:47;98759.75;;;11.39;59.21
51239;BME280;38154;47.548;18.828;2023-02-23T13:17:27;98756.19;;;11.63;57.42
51239;BME280;38154;47.548;18.828;2023-02-23T13:20:02;98760.53;;;11.68;56.98
51239;BME280;38154;47.548;18.828;2023-02-23T13:22:41;98757.03;;;11.74;56.88
51239;BME280;38154;47.548;18.828;2023-02-23T13:25:22;98742.25;;;11.72;57.01
51239;BME280;38154;47.548;18.828;2023-02-23T13:27:54;98744.84;;;11.72;57.50
51239;BME280;38154;47.548;18.828;2023-02-23T13:30:22;98747.41;;;11.79;57.79
51239;BME280;38154;47.548;18.828;2023-02-23T13:32:48;98748.31;;;11.74;57.28
51239;BME280;38154;47.548;18.828;2023-02-23T13:35:17;98752.66;;;11.75;57.80
51239;BME280;38154;47.548;18.828;2023-02-23T13:41:23;98745.72;;;11.77;57.88
51239;BME280;38154;47.548;18.828;2023-02-23T13:44:02;98745.66;;;11.87;56.44
51239;BME280;38154;47.548;18.828;2023-02-23T13:49:49;98750.87;;;11.95;56.65
51239;BME280;38154;47.548;18.828;2023-02-23T13:52:30;98741.28;;;11.89;56.87
51239;BME280;38154;47.548;18.828;2023-02-23T13:54:59;98743.09;;;11.72;57.22
51239;BME280;38154;47.548;18.828;2023-02-23T13:57:29;98741.41;;;11.56;57.40
51239;BME280;38154;47.548;18.828;2023-02-23T13:59:57;98744.03;;;11.62;57.18
51239;BME280;38154;47.548;18.828;2023-02-23T14:04:56;98749.34;;;11.28;58.11
51239;BME280;38154;47.548;18.828;2023-02-23T14:07:27;98744.13;;;11.20;58.44
51239;BME280;38154;47.548;18.828;2023-02-23T14:10:05;98738.91;;;11.22;58.82
51239;BME280;38154;47.548;18.828;2023-02-23T14:12:38;98739.75;;;11.19;58.84
51239;BME280;38154;47.548;18.828;2023-02-23T14:18:02;98747.56;;;11.36;59.09
51239;BME280;38154;47.548;18.828;2023-02-23T14:31:14;98755.41;;;11.35;59.16
51239;BME280;38154;47.548;18.828;2023-02-23T14:36:28;98749.34;;;10.94;60.39
51239;BME280;38154;47.548;18.828;2023-02-23T14:38:58;98750.25;;;10.94;60.72
51239;BME280;38154;47.548;18.828;2023-02-23T14:42:07;98748.50;;;10.80;60.73
51239;BME280;38154;47.548;18.828;2023-02-23T14:49:41;98751.94;;;10.42;61.98
51239;BME280;38154;47.548;18.828;2023-02-23T14:52:31;98741.47;;;10.29;62.42
51239;BME280;38154;47.548;18.828;2023-02-23T14:57:42;98746.66;;;10.18;63.02
51239;BME280;38154;47.548;18.828;2023-02-23T15:02:57;98742.28;;;9.97;63.54
51239;BME280;38154;47.548;18.828;2023-02-23T15:05:28;98741.38;;;9.98;64.33
51239;BME280;38154;47.548;18.828;2023-02-23T15:07:59;98743.16;;;10.02;64.39
51239;BME280;38154;47.548;18.828;2023-02-23T15:10:33;98742.25;;;9.94;64.24
51239;BME280;38154;47.548;18.828;2023-02-23T15:13:00;98744.00;;;9.94;64.58
51239;BME280;38154;47.548;18.828;2023-02-23T15:15:32;98730.06;;;9.81;65.42
51239;BME280;38154;47.548;18.828;2023-02-23T15:18:00;98736.09;;;9.72;65.56